Time;durP1;ratioP1;P1;durP2;ratioP2;P2;SDS_P1;SDS_P2;PMS_P1;PMS_P2;Temp;Humidity;BMP_temperature;BMP_pressure;BME280_temperature;BME280_humidity;BME280_pressure;Samples;Min_cycle;Max_cycle;Signal;HPM_P1;HPM_P2
2023/02/26 00:01:07;;;;;;;2.4;2.1;;;;;;;-0.79;95.94238;927.6528;;;;
2023/02/26 00:03:33;;;;;;;2.4;2.1;;;;;;;-0.75;95.52832;927.7097;;;;
2023/02/26 00:05:59;;;;;;;3.5;1.9;;;;;;;-0.7;95.38477;927.7115;;;;
2023/02/26 00:08:25;;;;;;;2.4;2.2;;;;;;;-0.72;95.20215;927.7695;;;;
2023/02/26 00:11:02;;;;;;;2.6;2;;;;;;;-0.72;95.36914;927.6539;;;;
2023/02/26 00:13:27;;;;;;;3;2.3;;;;;;;-0.82;94.74414;927.7587;;;;
2023/02/26 00:15:52;;;;;;;2.4;2.1;;;;;;;-0.86;95.26953;927.8214;;;;
2023/02/26 00:18:20;;;;;;;4.8;2.1;;;;;;;-0.67;95.62402;927.8797;;;;
2023/02/26 00:20:47;;;;;;;2.5;2;;;;;;;-0.66;95.30371;927.8495;;;;
2023/02/26 00:23:13;;;;;;;3.2;2.2;;;;;;;-0.46;95.15918;927.9285;;;;
2023/02/26 00:25:37;;;;;;;2.8;1.9;;;;;;;-0.34;94.7207;927.9664;;;;
2023/02/26 00:28:04;;;;;;;2.3;2;;;;;;;-0.35;94.33984;927.9833;;;;
2023/02/26 00:30:31;;;;;;;1.9;1.6;;;;;;;-0.45;94.05078;928.0165;;;;
2023/02/26 00:32:58;;;;;;;1.7;1.6;;;;;;;-0.45;94.02832;928.075;;;;
2023/02/26 00:35:28;;;;;;;1.7;1.4;;;;;;;-0.64;93.52832;928.0995;;;;
2023/02/26 00:38:00;;;;;;;2.1;1.4;;;;;;;-0.62;93.58789;928.0854;;;;
2023/02/26 00:40:25;;;;;;;2.4;1.8;;;;;;;-0.7;93.5498;928.1429;;;;
2023/02/26 00:42:50;;;;;;;1.8;1.5;;;;;;;-0.7;93.50488;928.1467;;;;
2023/02/26 00:45:19;;;;;;;2.4;1.5;;;;;;;-0.63;93.33203;928.1649;;;;
2023/02/26 00:47:47;;;;;;;2.1;1.5;;;;;;;-0.73;93.43262;928.2131;;;;
2023/02/26 00:50:15;;;;;;;2;1.7;;;;;;;-0.65;92.88281;928.2164;;;;
2023/02/26 00:52:44;;;;;;;1.7;1.4;;;;;;;-0.64;92.66113;928.1708;;;;
2023/02/26 00:55:14;;;;;;;1.8;1.5;;;;;;;-0.56;92.92383;928.1689;;;;
2023/02/26 00:57:47;;;;;;;3;1.4;;;;;;;-0.58;92.59863;928.2006;;;;
2023/02/26 01:00:21;;;;;;;1.8;1.4;;;;;;;-0.48;92.41992;928.1805;;;;
2023/02/26 01:02:55;;;;;;;1.8;1.4;;;;;;;-0.48;91.70605;928.1694;;;;
2023/02/26 01:05:20;;;;;;;1.9;1.7;;;;;;;-0.42;92.03125;928.2081;;;;
2023/02/26 01:07:45;;;;;;;2.9;1.8;;;;;;;-0.51;91.57813;928.1669;;;;
2023/02/26 01:10:16;;;;;;;1.5;1.4;;;;;;;-0.46;91.63379;928.199;;;;
2023/02/26 01:12:41;;;;;;;1.9;1.6;;;;;;;-0.38;91.92773;928.1989;;;;
2023/02/26 01:15:07;;;;;;;1.4;1.3;;;;;;;-0.31;91.00195;928.1593;;;;
2023/02/26 01:17:42;;;;;;;2.2;1.6;;;;;;;-0.36;90.60742;928.1627;;;;
2023/02/26 01:20:12;;;;;;;1.6;1.3;;;;;;;-0.38;90.79297;928.1886;;;;
2023/02/26 01:22:37;;;;;;;1.8;1.5;;;;;;;-0.33;90.0498;928.1959;;;;
2023/02/26 01:25:02;;;;;;;1.6;1.3;;;;;;;-0.39;89.57813;928.1131;;;;
2023/02/26 01:27:34;;;;;;;1.4;1.3;;;;;;;-0.49;89.16699;928.1534;;;;
2023/02/26 01:30:03;;;;;;;1.7;1.6;;;;;;;-0.48;89.89258;928.156;;;;
2023/02/26 01:32:28;;;;;;;3.6;2.4;;;;;;;-0.4;89.54492;928.2209;;;;
2023/02/26 01:34:55;;;;;;;2.3;1.9;;;;;;;-0.29;89.28711;928.1667;;;;
2023/02/26 01:37:20;;;;;;;2.8;1.7;;;;;;;-0.33;88.67871;928.1873;;;;
2023/02/26 01:39:48;;;;;;;1.5;1.4;;;;;;;-0.38;88.55566;928.2073;;;;
2023/02/26 01:42:16;;;;;;;2.5;1.7;;;;;;;-0.45;88.77637;928.2205;;;;
2023/02/26 01:44:41;;;;;;;1.9;1.5;;;;;;;-0.42;88.82617;928.2356;;;;
2023/02/26 01:47:06;;;;;;;1.4;1.3;;;;;;;-0.34;88.75293;928.24;;;;
2023/02/26 01:49:34;;;;;;;2;1.6;;;;;;;-0.49;88.42188;928.08;;;;
2023/02/26 01:52:00;;;;;;;1.8;1.4;;;;;;;-0.56;88.87598;928.0112;;;;
2023/02/26 01:54:26;;;;;;;1.8;1.5;;;;;;;-0.61;89.0332;928.1188;;;;
2023/02/26 01:56:51;;;;;;;1.8;1.4;;;;;;;-0.6;89.5;928.1624;;;;
2023/02/26 01:59:16;;;;;;;1.4;1.3;;;;;;;-0.58;89.79395;928.0878;;;;
2023/02/26 02:01:46;;;;;;;1.7;1.6;;;;;;;-0.61;90.17676;928.0561;;;;
2023/02/26 02:04:12;;;;;;;1.7;1.5;;;;;;;-0.49;90.33594;928.087;;;;
2023/02/26 02:06:38;;;;;;;1.3;1.2;;;;;;;-0.66;89.72266;928.0881;;;;
2023/02/26 02:09:06;;;;;;;1.2;1.1;;;;;;;-0.54;89.92578;928.055;;;;
2023/02/26 02:11:31;;;;;;;1.4;1.3;;;;;;;-0.7;89.80176;928.071;;;;
2023/02/26 02:13:56;;;;;;;1.2;1.1;;;;;;;-0.59;89.71387;927.9999;;;;
2023/02/26 02:16:22;;;;;;;1.4;1.3;;;;;;;-0.51;89.59961;927.9152;;;;
2023/02/26 02:18:47;;;;;;;1.9;1.1;;;;;;;-0.58;89.74023;928.027;;;;
2023/02/26 02:21:12;;;;;;;1.1;1;;;;;;;-0.46;89.65137;928.0262;;;;
2023/02/26 02:23:40;;;;;;;2.2;1.6;;;;;;;-0.46;89.24219;928.0342;;;;
2023/02/26 02:26:05;;;;;;;1.1;1;;;;;;;-0.53;89.36035;928.0481;;;;
2023/02/26 02:28:30;;;;;;;2.4;1.3;;;;;;;-0.35;89.12012;928.0287;;;;
2023/02/26 02:30:55;;;;;;;1.6;1.2;;;;;;;-0.25;88.49512;928.0678;;;;
2023/02/26 02:33:22;;;;;;;1.6;1.1;;;;;;;-0.14;88.22852;928.0223;;;;
2023/02/26 02:35:45;;;;;;;1.2;1.1;;;;;;;-0.04;87.50293;928.0122;;;;
2023/02/26 02:38:16;;;;;;;1.2;1.1;;;;;;;-0.17;87.52148;927.9981;;;;
2023/02/26 02:40:45;;;;;;;2;1.5;;;;;;;-0.56;88.33984;928.0572;;;;
2023/02/26 02:43:12;;;;;;;2.6;1.4;;;;;;;-0.38;88.66895;928.0183;;;;
2023/02/26 02:45:37;;;;;;;1.3;1.2;;;;;;;-0.32;88.22461;927.9734;;;;
2023/02/26 02:48:02;;;;;;;1.2;1.1;;;;;;;-0.2;88.28418;928.0073;;;;
2023/02/26 02:50:27;;;;;;;2.5;1.2;;;;;;;-0.21;87.79004;928.0066;;;;
2023/02/26 02:52:52;;;;;;;1.6;1.4;;;;;;;-0.3;88.13867;927.9833;;;;
2023/02/26 02:55:20;;;;;;;1.3;1.2;;;;;;;-0.25;88.33984;928.053;;;;
2023/02/26 02:57:45;;;;;;;1.6;1.5;;;;;;;-0.29;88.5752;928.0438;;;;
2023/02/26 03:00:11;;;;;;;2.4;1.6;;;;;;;-0.34;89.06641;928.1166;;;;
2023/02/26 03:02:35;;;;;;;2;1.7;;;;;;;-0.34;88.99805;928.1345;;;;
2023/02/26 03:05:00;;;;;;;2.1;1.6;;;;;;;-0.39;89.42188;928.1359;;;;
2023/02/26 03:07:25;;;;;;;1.9;1.7;;;;;;;-0.5;89.39941;928.1439;;;;
2023/02/26 03:09:51;;;;;;;1.7;1.6;;;;;;;-0.54;89.85645;928.1674;;;;
2023/02/26 03:12:16;;;;;;;1.6;1.5;;;;;;;-0.58;90.34961;928.1957;;;;
2023/02/26 03:14:46;;;;;;;1.8;1.7;;;;;;;-0.67;90.04297;928.198;;;;
2023/02/26 03:17:17;;;;;;;1.5;1.4;;;;;;;-0.89;90.18359;928.1736;;;;
2023/02/26 03:19:46;;;;;;;1.6;1.5;;;;;;;-1.14;91.17578;928.2776;;;;
2023/02/26 03:22:14;;;;;;;1.4;1.3;;;;;;;-1.22;91.64551;928.2922;;;;
2023/02/26 03:24:39;;;;;;;1.2;1.1;;;;;;;-1.27;91.93555;928.3616;;;;
2023/02/26 03:27:06;;;;;;;1;1;;;;;;;-1.37;92.56836;928.2361;;;;
2023/02/26 03:29:32;;;;;;;1.5;1.4;;;;;;;-1.41;92.52539;928.3281;;;;
2023/02/26 03:32:00;;;;;;;1.4;1.3;;;;;;;-1.46;92.33789;928.338;;;;
2023/02/26 03:34:25;;;;;;;1.2;1.2;;;;;;;-1.5;92.7959;928.3395;;;;
2023/02/26 03:36:51;;;;;;;1.4;1.3;;;;;;;-1.38;92.47559;928.2528;;;;
2023/02/26 03:39:16;;;;;;;1.3;1.2;;;;;;;-1.28;91.92188;928.3395;;;;
2023/02/26 03:41:41;;;;;;;1.3;1.2;;;;;;;-1.15;91.64063;928.3641;;;;
2023/02/26 03:44:11;;;;;;;1.3;1.2;;;;;;;-1.19;90.99805;928.4242;;;;
2023/02/26 03:46:36;;;;;;;1.5;1.4;;;;;;;-1.23;91.01172;928.4537;;;;
2023/02/26 03:49:01;;;;;;;1.4;1.3;;;;;;;-1.14;91.0293;928.4579;;;;
2023/02/26 03:51:26;;;;;;;1.4;1.3;;;;;;;-1.31;90.58203;928.4669;;;;
2023/02/26 03:53:52;;;;;;;2.3;1.7;;;;;;;-1.42;90.84863;928.4011;;;;
2023/02/26 03:56:17;;;;;;;1.5;1.4;;;;;;;-1.31;91.27051;928.5372;;;;
2023/02/26 03:58:46;;;;;;;1.5;1.4;;;;;;;-1.33;91.17773;928.5522;;;;
2023/02/26 04:02:34;;;;;;;1.6;1.5;;;;;;;-1.4;91.09668;928.5817;;;;
2023/02/26 04:04:59;;;;;;;1.8;1.3;;;;;;;-1.39;91.25391;928.6672;;;;
2023/02/26 04:07:24;;;;;;;1.7;1.6;;;;;;;-1.45;90.97461;928.6403;;;;
2023/02/26 04:09:49;;;;;;;1.6;1.4;;;;;;;-1.58;91.34668;928.6558;;;;
2023/02/26 04:12:17;;;;;;;2;1.8;;;;;;;-1.63;91.98926;928.605;;;;
2023/02/26 04:21:10;;;;;;;2.7;2;;;;;;;-1.91;92.9834;928.6033;;;;
2023/02/26 04:23:35;;;;;;;2.1;1.9;;;;;;;-1.97;93.05664;928.6725;;;;
2023/02/26 04:26:00;;;;;;;1.9;1.8;;;;;;;-2.03;93.64258;928.6917;;;;
2023/02/26 04:28:26;;;;;;;2.2;2;;;;;;;-2.07;93.91016;928.6636;;;;
2023/02/26 04:30:51;;;;;;;2.2;2;;;;;;;-2.12;94;928.6688;;;;
2023/02/26 04:33:18;;;;;;;2.4;2.2;;;;;;;-2.15;93.89355;928.7744;;;;
2023/02/26 04:35:43;;;;;;;3.6;2.3;;;;;;;-2.13;94.05273;928.7485;;;;
2023/02/26 04:38:56;;;;;;;2.2;2;;;;;;;-2.13;93.28809;928.7399;;;;
2023/02/26 04:41:27;;;;;;;2.4;1.9;;;;;;;-2.3;93.92578;928.8303;;;;
2023/02/26 04:43:57;;;;;;;2.6;2.1;;;;;;;-2.35;94.47852;928.8904;;;;
2023/02/26 04:46:22;;;;;;;2.4;2.2;;;;;;;-2.3;94.8125;928.8389;;;;
2023/02/26 04:48:49;;;;;;;2.5;2.2;;;;;;;-2.3;94.71289;928.8826;;;;
2023/02/26 04:51:14;;;;;;;2.6;2.4;;;;;;;-2.37;94.5498;928.9097;;;;
2023/02/26 04:53:41;;;;;;;3.7;2.4;;;;;;;-2.39;94.83398;928.9494;;;;
2023/02/26 04:56:06;;;;;;;2.6;2.4;;;;;;;-2.3;94.83398;928.9216;;;;
2023/02/26 04:58:34;;;;;;;2.6;2.4;;;;;;;-2.31;93.94629;928.9294;;;;
2023/02/26 05:00:59;;;;;;;2.4;2.2;;;;;;;-2.43;94.20605;928.9992;;;;
2023/02/26 05:03:27;;;;;;;3.1;2.7;;;;;;;-2.55;94.05566;929.032;;;;
2023/02/26 05:05:52;;;;;;;2.7;2.4;;;;;;;-2.56;94.19922;928.8788;;;;
2023/02/26 05:08:20;;;;;;;2.5;2.3;;;;;;;-2.67;94;928.9942;;;;
2023/02/26 05:10:46;;;;;;;3.2;2.3;;;;;;;-2.79;94.21484;929.0553;;;;
2023/02/26 05:13:11;;;;;;;2.8;2.4;;;;;;;-2.83;94.27148;929.0679;;;;
2023/02/26 05:15:42;;;;;;;3.3;2.5;;;;;;;-2.77;93.48926;929.0302;;;;
2023/02/26 05:18:07;;;;;;;5.2;2.8;;;;;;;-2.73;93.66309;929.1699;;;;
2023/02/26 05:20:36;;;;;;;2.4;2.2;;;;;;;-2.83;93.04492;929.1716;;;;
2023/02/26 05:23:02;;;;;;;3.8;2.5;;;;;;;-2.78;93.38477;929.2112;;;;
2023/02/26 05:25:27;;;;;;;3.6;2.5;;;;;;;-2.77;92.74707;929.1105;;;;
2023/02/26 05:27:54;;;;;;;3.8;2.5;;;;;;;-2.78;92.88965;929.1561;;;;
2023/02/26 05:30:20;;;;;;;3.2;2.6;;;;;;;-2.74;92.44336;929.2841;;;;
2023/02/26 05:32:48;;;;;;;2.5;2.3;;;;;;;-2.77;92.57031;929.2593;;;;
2023/02/26 05:35:14;;;;;;;3.2;2.7;;;;;;;-2.73;92.08887;929.2506;;;;
2023/02/26 05:37:41;;;;;;;3.7;2.7;;;;;;;-2.76;92.51465;929.2798;;;;
2023/02/26 05:40:08;;;;;;;4;2.8;;;;;;;-2.69;92.57715;929.233;;;;
2023/02/26 05:42:36;;;;;;;2.8;2.5;;;;;;;-2.75;92.64063;929.3007;;;;
2023/02/26 05:45:06;;;;;;;2.7;2.4;;;;;;;-2.69;92.71875;929.3318;;;;
2023/02/26 05:47:30;;;;;;;2.7;2.3;;;;;;;-2.6;92.35352;929.3417;;;;
2023/02/26 05:49:58;;;;;;;3.1;2.6;;;;;;;-2.57;92.28223;929.3975;;;;
2023/02/26 05:52:23;;;;;;;2.8;2.4;;;;;;;-2.51;92.13867;929.4186;;;;
2023/02/26 05:54:52;;;;;;;3.1;2.8;;;;;;;-2.55;91.9541;929.4725;;;;
2023/02/26 05:57:17;;;;;;;4.1;2.7;;;;;;;-2.51;91.86426;929.493;;;;
2023/02/26 05:59:43;;;;;;;3.5;2.7;;;;;;;-2.41;91.94141;929.4963;;;;
2023/02/26 06:02:09;;;;;;;3.4;2.4;;;;;;;-2.55;91.64355;929.5645;;;;
2023/02/26 06:04:39;;;;;;;2.7;2.5;;;;;;;-2.56;91.49805;929.5516;;;;
2023/02/26 06:07:09;;;;;;;3.3;2.7;;;;;;;-2.68;91.4375;929.6058;;;;
2023/02/26 06:09:34;;;;;;;4.5;2.6;;;;;;;-2.7;91.98633;929.7427;;;;
2023/02/26 06:12:02;;;;;;;4.7;2.8;;;;;;;-2.62;91.9375;929.7347;;;;
2023/02/26 06:14:27;;;;;;;3.2;2.8;;;;;;;-2.66;91.77539;929.8147;;;;
2023/02/26 06:16:58;;;;;;;4;2.6;;;;;;;-2.69;91.84668;929.8236;;;;
2023/02/26 06:19:24;;;;;;;4.4;2.8;;;;;;;-2.76;92.11621;929.9054;;;;
2023/02/26 06:21:56;;;;;;;3.6;2.5;;;;;;;-2.79;92.12402;929.9922;;;;
2023/02/26 06:24:25;;;;;;;2.8;2.6;;;;;;;-2.84;92.17773;929.9437;;;;
2023/02/26 06:26:50;;;;;;;4;2.8;;;;;;;-2.9;92.63086;930.0859;;;;
2023/02/26 06:29:17;;;;;;;3.9;2.8;;;;;;;-2.87;92.65918;930.0748;;;;
2023/02/26 06:31:41;;;;;;;3;2.7;;;;;;;-2.9;92.80566;930.1355;;;;
2023/02/26 06:34:10;;;;;;;4;2.8;;;;;;;-2.84;92.50977;930.1805;;;;
2023/02/26 06:36:35;;;;;;;4.4;2.6;;;;;;;-2.86;92.59473;930.2566;;;;
2023/02/26 06:39:04;;;;;;;3.3;2.9;;;;;;;-2.81;92.0293;930.1311;;;;
2023/02/26 06:41:32;;;;;;;4;2.6;;;;;;;-2.78;92.13477;930.1697;;;;
2023/02/26 06:43:58;;;;;;;3.7;2.9;;;;;;;-2.73;92.13574;930.2426;;;;
2023/02/26 06:46:27;;;;;;;3.8;2.7;;;;;;;-2.72;91.6416;930.3007;;;;
2023/02/26 06:48:59;;;;;;;3.9;2.8;;;;;;;-2.69;91.84668;930.3074;;;;
2023/02/26 06:51:23;;;;;;;3.6;2.7;;;;;;;-2.53;91.58105;930.303;;;;
2023/02/26 06:53:50;;;;;;;3.1;2.5;;;;;;;-2.53;90.71777;930.345;;;;
2023/02/26 06:56:15;;;;;;;3.2;2.3;;;;;;;-2.52;91.08691;930.3934;;;;
2023/02/26 06:58:43;;;;;;;3.4;2.3;;;;;;;-2.51;90.87891;930.3814;;;;
2023/02/26 07:01:09;;;;;;;3.6;2.6;;;;;;;-2.44;90.80371;930.4217;;;;
2023/02/26 07:03:37;;;;;;;3.4;2.5;;;;;;;-2.53;89.83203;930.4512;;;;
2023/02/26 07:06:02;;;;;;;3;2.4;;;;;;;-2.4;90.22461;930.4778;;;;
2023/02/26 07:08:32;;;;;;;3.3;2.4;;;;;;;-2.36;90.08105;930.439;;;;
2023/02/26 07:10:57;;;;;;;3.9;2.2;;;;;;;-2.36;90.1123;930.59;;;;
2023/02/26 07:13:26;;;;;;;3.3;2.4;;;;;;;-2.38;89.67676;930.6071;;;;
2023/02/26 07:16:06;;;;;;;3;2.7;;;;;;;-2.39;89.6543;930.6512;;;;
2023/02/26 07:18:35;;;;;;;4.3;2.4;;;;;;;-2.37;90.01074;930.5225;;;;
2023/02/26 07:21:01;;;;;;;2.7;2.2;;;;;;;-2.37;89.72266;930.6559;;;;
2023/02/26 07:23:26;;;;;;;2.5;2.3;;;;;;;-2.28;89.27637;930.5929;;;;
2023/02/26 07:25:55;;;;;;;4.6;2.4;;;;;;;-2.15;88.82715;930.6914;;;;
2023/02/26 07:28:21;;;;;;;3.2;2.3;;;;;;;-2.13;88.40039;930.7251;;;;
2023/02/26 07:30:45;;;;;;;3.6;2.1;;;;;;;-2.25;88.07422;930.803;;;;
2023/02/26 07:33:11;;;;;;;2.8;2.3;;;;;;;-2.33;88.38965;930.889;;;;
2023/02/26 07:35:37;;;;;;;3;2;;;;;;;-2.35;88.27539;930.8455;;;;
2023/02/26 07:38:08;;;;;;;3.6;2.4;;;;;;;-2.35;88.46582;930.9087;;;;
2023/02/26 07:40:40;;;;;;;2.7;2.2;;;;;;;-2.25;88.24121;930.9146;;;;
2023/02/26 07:43:12;;;;;;;3.3;2;;;;;;;-2.32;88.3916;930.8948;;;;
2023/02/26 07:45:43;;;;;;;2.3;2;;;;;;;-2.16;87.51758;930.9023;;;;
2023/02/26 07:48:13;;;;;;;3.1;2.8;;;;;;;-1.98;86.90039;930.8856;;;;
2023/02/26 07:50:38;;;;;;;3.6;2.4;;;;;;;-1.72;86.7334;930.8908;;;;
2023/02/26 07:53:07;;;;;;;2.8;2.2;;;;;;;-1.48;85.30566;930.9441;;;;
2023/02/26 07:55:32;;;;;;;2.1;1.9;;;;;;;-1.53;83.46484;930.9358;;;;
2023/02/26 07:57:59;;;;;;;3.1;2.3;;;;;;;-1.56;84.0459;930.9587;;;;
2023/02/26 08:00:25;;;;;;;2;1.8;;;;;;;-1.55;83.56152;930.9741;;;;
2023/02/26 08:02:53;;;;;;;3;1.8;;;;;;;-1.68;84.11133;930.9355;;;;
2023/02/26 08:05:18;;;;;;;2.3;1.9;;;;;;;-1.71;84.42773;931.009;;;;
2023/02/26 08:07:46;;;;;;;2.5;1.8;;;;;;;-1.74;83.61035;930.9461;;;;
2023/02/26 08:10:17;;;;;;;2.6;1.9;;;;;;;-1.61;83.79297;931.0867;;;;
2023/02/26 08:12:45;;;;;;;2.4;2;;;;;;;-1.6;83.9834;931.1198;;;;
2023/02/26 08:15:12;;;;;;;2.3;1.9;;;;;;;-1.37;82.85254;931.1013;;;;
2023/02/26 08:17:40;;;;;;;2.4;2.2;;;;;;;-1.32;82.12012;931.1542;;;;
2023/02/26 08:20:14;;;;;;;3.6;1.7;;;;;;;-1.04;81.97266;931.2134;;;;
2023/02/26 08:22:39;;;;;;;2.5;1.7;;;;;;;-1.14;81.08887;931.198;;;;
2023/02/26 08:25:04;;;;;;;3;1.8;;;;;;;-1;80.8252;931.1648;;;;
2023/02/26 08:27:31;;;;;;;4;1.8;;;;;;;-1.02;80.7002;931.1989;;;;
2023/02/26 08:29:56;;;;;;;1.9;1.6;;;;;;;-1.24;80.08105;931.2106;;;;
2023/02/26 08:32:22;;;;;;;3;2.1;;;;;;;-1.16;81.2168;931.2507;;;;
2023/02/26 08:34:50;;;;;;;3.6;1.9;;;;;;;-1.38;81.23926;931.2117;;;;
2023/02/26 08:37:15;;;;;;;3.1;2;;;;;;;-1.36;81.84473;931.2344;;;;
2023/02/26 08:39:44;;;;;;;2.4;2.1;;;;;;;-1.53;82.19922;931.2371;;;;
2023/02/26 08:42:16;;;;;;;3.6;2.2;;;;;;;-1.66;82.75;931.3803;;;;
2023/02/26 08:44:40;;;;;;;2.3;1.9;;;;;;;-1.74;83.41016;931.4525;;;;
2023/02/26 08:47:06;;;;;;;3;2.1;;;;;;;-1.71;82.80762;931.4523;;;;
2023/02/26 08:49:31;;;;;;;2.9;2.1;;;;;;;-1.57;83.0918;931.4706;;;;
2023/02/26 08:51:59;;;;;;;2.5;2.1;;;;;;;-1.55;82.24023;931.4697;;;;
2023/02/26 08:54:24;;;;;;;3.4;1.9;;;;;;;-1.55;82.58398;931.5758;;;;
2023/02/26 08:56:50;;;;;;;2.1;2;;;;;;;-1.65;82.37598;931.6094;;;;
2023/02/26 08:59:15;;;;;;;3.1;2.2;;;;;;;-1.52;83.21094;931.5862;;;;
2023/02/26 09:01:44;;;;;;;4.3;2;;;;;;;-1.39;82.53906;931.5925;;;;
2023/02/26 09:04:09;;;;;;;2;1.8;;;;;;;-1.26;81.38574;931.615;;;;
2023/02/26 09:06:35;;;;;;;2.3;2.1;;;;;;;-1.21;81.18555;931.6569;;;;
2023/02/26 09:09:00;;;;;;;2.5;1.7;;;;;;;-1.23;80.81348;931.7366;;;;
2023/02/26 09:11:29;;;;;;;3.2;2.2;;;;;;;-1.31;80.91992;931.7659;;;;
2023/02/26 09:13:53;;;;;;;3;2.3;;;;;;;-1.2;80.49902;931.8178;;;;
2023/02/26 09:16:20;;;;;;;3.4;2.1;;;;;;;-1.24;79.93457;931.8086;;;;
2023/02/26 09:18:45;;;;;;;2.4;2.2;;;;;;;-1.11;79.93848;931.8058;;;;
2023/02/26 09:21:15;;;;;;;2.3;2.1;;;;;;;-1.38;79.82031;931.7319;;;;
2023/02/26 09:23:44;;;;;;;2.6;2.2;;;;;;;-1.41;80.71289;931.7378;;;;
2023/02/26 09:26:09;;;;;;;9.9;2.6;;;;;;;-1.33;80.59473;931.6729;;;;
2023/02/26 09:28:37;;;;;;;2.8;2.2;;;;;;;-1.26;80.15332;931.7648;;;;
2023/02/26 09:31:03;;;;;;;2.5;2.2;;;;;;;-1.33;80.4043;931.8;;;;
2023/02/26 09:33:30;;;;;;;2.7;1.9;;;;;;;-1.16;81.59375;931.8601;;;;
2023/02/26 09:35:55;;;;;;;2.7;2.1;;;;;;;-0.73;79.96387;931.8931;;;;
2023/02/26 09:38:20;;;;;;;2.5;2.1;;;;;;;-0.18;77.3291;931.8361;;;;
2023/02/26 09:40:49;;;;;;;2.5;2.1;;;;;;;0.22;74.94043;931.7845;;;;
2023/02/26 09:43:17;;;;;;;3.2;2;;;;;;;0.38;74.74707;931.8664;;;;
2023/02/26 09:45:46;;;;;;;2.1;1.9;;;;;;;0.38;75.0127;931.7958;;;;
2023/02/26 09:48:13;;;;;;;2.8;1.9;;;;;;;0.22;74.44922;931.7766;;;;
2023/02/26 09:50:38;;;;;;;3;2;;;;;;;-0.04;74.72754;931.7656;;;;
2023/02/26 09:53:09;;;;;;;2.9;1.8;;;;;;;-0.3;75.92773;931.8139;;;;
2023/02/26 09:55:35;;;;;;;2.7;2.2;;;;;;;-0.38;76.4248;931.8233;;;;
2023/02/26 09:58:00;;;;;;;3.6;2.6;;;;;;;-0.33;76.87988;931.8286;;;;
2023/02/26 10:00:25;;;;;;;2.8;2;;;;;;;-0.44;76.23535;931.7626;;;;
2023/02/26 10:02:52;;;;;;;2.3;1.9;;;;;;;-0.62;77.23926;931.757;;;;
2023/02/26 10:05:24;;;;;;;3.3;2.3;;;;;;;-0.79;77.20703;931.661;;;;
2023/02/26 10:07:49;;;;;;;4.3;2.1;;;;;;;-0.86;78.57227;931.7758;;;;
2023/02/26 10:10:21;;;;;;;3.1;2.2;;;;;;;-0.97;79.27441;931.7737;;;;
2023/02/26 10:12:46;;;;;;;2.9;2.1;;;;;;;-1;79.00293;931.7742;;;;
2023/02/26 10:15:18;;;;;;;3.9;2.4;;;;;;;-1.01;78.80176;931.7469;;;;
2023/02/26 10:17:49;;;;;;;2.7;2.2;;;;;;;-0.67;78.71973;931.5594;;;;
2023/02/26 10:20:18;;;;;;;2.6;2;;;;;;;-0.72;77.8877;931.6467;;;;
2023/02/26 10:22:46;;;;;;;2.8;2.1;;;;;;;-0.88;78.08008;931.5889;;;;
2023/02/26 10:25:17;;;;;;;2.9;2.2;;;;;;;-0.98;78.09473;931.6038;;;;
2023/02/26 10:27:43;;;;;;;2.5;2.1;;;;;;;-1.03;78.49609;931.6563;;;;
2023/02/26 10:30:13;;;;;;;3.8;2;;;;;;;-0.96;78.07617;931.56;;;;
2023/02/26 10:32:42;;;;;;;2.6;2.4;;;;;;;-1.07;78.73438;931.5928;;;;
2023/02/26 10:35:16;;;;;;;3.5;2.3;;;;;;;-1.24;78.73633;931.563;;;;
2023/02/26 10:37:51;;;;;;;3.9;2.3;;;;;;;-1.42;78.52539;931.637;;;;
2023/02/26 10:40:18;;;;;;;2.6;2.2;;;;;;;-1.44;79.12012;931.5641;;;;
2023/02/26 10:42:43;;;;;;;2.7;2.1;;;;;;;-1.37;79.62207;931.5222;;;;
2023/02/26 10:45:08;;;;;;;2.5;2.3;;;;;;;-1.32;78.75293;931.7999;;;;
2023/02/26 10:47:33;;;;;;;2.8;2.4;;;;;;;-1.25;78.78906;931.8378;;;;
2023/02/26 10:49:58;;;;;;;2.5;2.2;;;;;;;-1.26;78.67578;931.9478;;;;
2023/02/26 10:52:23;;;;;;;3.2;2.4;;;;;;;-1.28;79.37109;931.9037;;;;
2023/02/26 10:54:51;;;;;;;2.9;2.2;;;;;;;-1.24;79.50293;931.9753;;;;
2023/02/26 10:57:18;;;;;;;2.4;2.2;;;;;;;-1.25;79.91211;931.9811;;;;
2023/02/26 10:59:43;;;;;;;2.3;2.1;;;;;;;-1.27;80.0498;932.0025;;;;
2023/02/26 11:02:09;;;;;;;3.5;2.3;;;;;;;-1.11;79.91602;932.0097;;;;
2023/02/26 11:04:34;;;;;;;2;1.9;;;;;;;-1.15;79.30957;932.0973;;;;
2023/02/26 11:07:00;;;;;;;3;2.3;;;;;;;-1.09;79.68652;932.1831;;;;
2023/02/26 11:09:26;;;;;;;2.3;2.1;;;;;;;-1.07;78.87793;932.1717;;;;
2023/02/26 11:11:55;;;;;;;2.6;2.1;;;;;;;-1.07;79.05566;932.1833;;;;
2023/02/26 11:14:23;;;;;;;3;2.3;;;;;;;-0.88;78.8584;932.2665;;;;
2023/02/26 11:16:56;;;;;;;3.1;2.1;;;;;;;-0.71;77.46484;932.305;;;;
2023/02/26 11:19:20;;;;;;;3.5;2;;;;;;;-0.45;77.32617;932.3091;;;;
2023/02/26 11:21:45;;;;;;;3.3;2.6;;;;;;;-0.41;76.93164;932.2364;;;;
2023/02/26 11:24:10;;;;;;;4;2.1;;;;;;;-0.09;76.54395;932.3401;;;;
2023/02/26 11:26:40;;;;;;;3.6;2.2;;;;;;;0.14;75.14941;932.3362;;;;
2023/02/26 11:29:06;;;;;;;2.9;2;;;;;;;0.13;74.9248;932.2317;;;;
2023/02/26 11:31:32;;;;;;;2.4;2;;;;;;;0.04;74.50781;932.243;;;;
2023/02/26 11:33:57;;;;;;;1.9;1.8;;;;;;;0.04;74.73047;932.2447;;;;
2023/02/26 11:36:22;;;;;;;2.3;2.1;;;;;;;0.23;74.27344;932.1567;;;;
2023/02/26 11:38:47;;;;;;;2.5;2.1;;;;;;;0.8;73.64844;932.0903;;;;
2023/02/26 11:41:13;;;;;;;2.1;1.9;;;;;;;1.35;72.27051;932.0703;;;;
2023/02/26 11:43:39;;;;;;;2.7;2;;;;;;;1.2;70.1875;932.1227;;;;
2023/02/26 11:46:04;;;;;;;2.3;2;;;;;;;1.04;71.34473;932.2067;;;;
2023/02/26 11:48:28;;;;;;;2.1;1.9;;;;;;;1.26;71.2373;932.0814;;;;
2023/02/26 11:50:54;;;;;;;2;1.8;;;;;;;1.2;71.9873;932.11;;;;
2023/02/26 11:53:20;;;;;;;2.2;2;;;;;;;1.55;71.33984;932.2158;;;;
2023/02/26 11:55:48;;;;;;;3;1.9;;;;;;;1.47;70.69043;932.2383;;;;
2023/02/26 11:58:13;;;;;;;2.5;1.9;;;;;;;1.39;71.67188;932.1726;;;;
2023/02/26 12:00:39;;;;;;;4;2.2;;;;;;;2.16;70.3252;932.1891;;;;
2023/02/26 12:03:06;;;;;;;1.9;1.8;;;;;;;2.73;66.20605;932.1063;;;;
2023/02/26 12:05:33;;;;;;;2.1;1.9;;;;;;;2.85;66.04297;932.087;;;;
2023/02/26 12:08:03;;;;;;;2.7;2.1;;;;;;;2.87;66.05859;932.0594;;;;
2023/02/26 12:10:29;;;;;;;2.9;1.7;;;;;;;2.16;68.27637;932.1255;;;;
2023/02/26 12:12:54;;;;;;;2.1;1.9;;;;;;;1.75;69.33887;932.1278;;;;
2023/02/26 12:15:19;;;;;;;2.3;2.1;;;;;;;1.52;70.43164;932.0761;;;;
2023/02/26 12:17:47;;;;;;;3.2;2.6;;;;;;;1.65;71.67188;931.9824;;;;
2023/02/26 12:20:18;;;;;;;2.9;2.4;;;;;;;1.91;69.96973;931.8379;;;;
2023/02/26 12:22:43;;;;;;;2.6;2.3;;;;;;;1.72;68.76465;931.8802;;;;
2023/02/26 12:25:08;;;;;;;2.9;2.5;;;;;;;1.31;71.26855;931.8948;;;;
2023/02/26 12:27:33;;;;;;;3;2.1;;;;;;;1.51;70.39648;931.9998;;;;
2023/02/26 12:30:00;;;;;;;2.7;2;;;;;;;1.73;69.50391;932.0496;;;;
2023/02/26 12:32:27;;;;;;;3.2;2.2;;;;;;;2.14;68.27246;932.0769;;;;
2023/02/26 12:34:52;;;;;;;1.9;1.7;;;;;;;2.99;63.74316;931.8817;;;;
2023/02/26 12:37:17;;;;;;;1.9;1.7;;;;;;;2.29;64.78027;931.9921;;;;
2023/02/26 12:39:42;;;;;;;2.2;2;;;;;;;1.96;66.48633;932.0561;;;;
2023/02/26 12:42:08;;;;;;;2.8;2;;;;;;;1.56;67.18555;932.1503;;;;
2023/02/26 12:44:36;;;;;;;2.5;2.3;;;;;;;1.18;69.03418;932.1605;;;;
2023/02/26 12:47:01;;;;;;;2.2;2;;;;;;;1.05;69.27148;932.1853;;;;
2023/02/26 12:49:28;;;;;;;2.4;2.2;;;;;;;0.75;70.83984;932.1903;;;;
2023/02/26 12:51:53;;;;;;;3.3;2.1;;;;;;;0.55;71.2959;932.1876;;;;
2023/02/26 12:54:20;;;;;;;2.8;2.4;;;;;;;0.43;72.04492;932.1589;;;;
2023/02/26 12:56:49;;;;;;;2.6;2.4;;;;;;;0.36;72.08887;932.1333;;;;
2023/02/26 12:59:14;;;;;;;2.5;2.3;;;;;;;0.54;71.86426;932.1788;;;;
2023/02/26 13:01:40;;;;;;;2.3;2.1;;;;;;;0.26;72.08398;932.2269;;;;
2023/02/26 13:04:05;;;;;;;2.6;2.3;;;;;;;0.17;73.53809;932.1359;;;;
2023/02/26 13:06:30;;;;;;;3.2;2.4;;;;;;;-0.37;73.79004;932.2148;;;;
2023/02/26 13:08:55;;;;;;;4.6;2.5;;;;;;;-0.44;76.37988;932.1912;;;;
2023/02/26 13:11:20;;;;;;;3.3;2.5;;;;;;;-0.3;76.40625;932.1909;;;;
2023/02/26 13:13:46;;;;;;;2.7;2.5;;;;;;;-0.32;76.55859;932.0759;;;;
2023/02/26 13:16:11;;;;;;;3.1;2.4;;;;;;;-0.09;77.19043;932.1008;;;;
2023/02/26 13:18:45;;;;;;;2.8;2.5;;;;;;;-0.3;77.53223;932.116;;;;
2023/02/26 13:21:14;;;;;;;3.1;2.8;;;;;;;-0.42;76.68555;932.1834;;;;
2023/02/26 13:23:44;;;;;;;3.4;2.7;;;;;;;-0.37;77.42871;932.2084;;;;
2023/02/26 13:26:10;;;;;;;3;2.7;;;;;;;-0.39;77.94824;932.2004;;;;
2023/02/26 13:28:37;;;;;;;4.8;2.9;;;;;;;-0.33;77.54785;932.1912;;;;
2023/02/26 13:31:00;;;;;;;2.8;2.6;;;;;;;-0.36;77.00684;932.1362;;;;
2023/02/26 13:33:25;;;;;;;2.7;2.5;;;;;;;-0.61;77.97461;932.2522;;;;
2023/02/26 13:35:51;;;;;;;2.8;2.5;;;;;;;-0.72;79.09961;932.215;;;;
2023/02/26 13:38:20;;;;;;;2.6;2.4;;;;;;;-0.71;78.13379;932.2121;;;;
2023/02/26 13:40:47;;;;;;;2.7;2.5;;;;;;;-0.88;79.22559;932.2808;;;;
2023/02/26 13:43:16;;;;;;;2.7;2.5;;;;;;;-0.93;80.33887;932.2678;;;;
2023/02/26 13:45:41;;;;;;;3;2.7;;;;;;;-0.82;79.84863;932.2731;;;;
2023/02/26 13:48:07;;;;;;;2.9;2.5;;;;;;;-0.74;78.56152;932.2897;;;;
2023/02/26 13:50:33;;;;;;;3.2;2.9;;;;;;;-0.65;78.40137;932.2356;;;;
2023/02/26 13:53:02;;;;;;;3.2;2.8;;;;;;;-0.55;78.85449;932.3309;;;;
2023/02/26 13:55:32;;;;;;;2.9;2.5;;;;;;;-0.41;77.85352;932.2158;;;;
2023/02/26 13:58:01;;;;;;;3.1;2.7;;;;;;;-0.35;76.89941;932.2858;;;;
2023/02/26 14:00:34;;;;;;;3.5;2.7;;;;;;;-0.43;76.85059;932.3301;;;;
2023/02/26 14:03:03;;;;;;;4.9;3.4;;;;;;;-0.09;76.43457;932.3059;;;;
2023/02/26 14:05:32;;;;;;;3.2;2.9;;;;;;;0.89;73.82227;932.387;;;;
2023/02/26 14:07:57;;;;;;;2.6;2.4;;;;;;;1.24;71.49121;932.4272;;;;
2023/02/26 14:10:23;;;;;;;3.1;2.8;;;;;;;1.36;70.57227;932.4586;;;;
2023/02/26 14:12:49;;;;;;;2.6;2.4;;;;;;;1.57;69.8916;932.5037;;;;
2023/02/26 14:15:19;;;;;;;2.3;2.1;;;;;;;1.76;69.18555;932.4539;;;;
2023/02/26 14:17:48;;;;;;;2.3;2;;;;;;;3.06;64.49512;932.4014;;;;
2023/02/26 14:20:13;;;;;;;2.5;2.1;;;;;;;4.05;60.33496;932.3661;;;;
2023/02/26 14:22:40;;;;;;;2.6;2.4;;;;;;;5.23;58.85645;932.351;;;;
2023/02/26 14:25:03;;;;;;;3;2.7;;;;;;;6.17;55.29004;932.3502;;;;
2023/02/26 14:27:34;;;;;;;2.6;2.4;;;;;;;5.76;53.3418;932.517;;;;
2023/02/26 14:29:59;;;;;;;2.7;2.2;;;;;;;4.49;56.79688;932.4968;;;;
2023/02/26 14:32:26;;;;;;;2.8;2.3;;;;;;;3.17;61.02051;932.5688;;;;
2023/02/26 14:34:52;;;;;;;2.6;2.4;;;;;;;2.43;63.41309;932.6064;;;;